Aérodrome :
LOGIN :

S'inscrire | Disclaimer

   EN    FR    IT 

 










Légende :    VFR   VFR Marginal   IFR   IFR Intensif   IFR Très Intensif
Visi : 
Plafond : 
>= 8 km
>= 3000ft
5 à 8 km
1000 à 3000 ft
1500m à 5 km
500 à 1000 ft
800 à 1500m
200 à 500 ft
< 800m
< 200 ft
Symboles :   Orages  Brouillard  Fortes neiges  Fortes précipitations  Vent > 20 kt
SIGMETs :   Divers  Orages  Givrage  Turbulence  Onde Orograph.  Cendres Volcan.






- Altitude de l'aérodrome : 122 ft
- Code IATA : TXL


EDDT - Berlin Tegel Int.

DERNIER METAR :
  • 090120Z 23001KT CAVOK 07/02 Q1020

METARs EXPIRÉS :
  • 090050Z VRB02KT CAVOK 07/01 Q1021
  • 090020Z VRB01KT CAVOK 07/01 Q1021
  • 082350Z 00000KT CAVOK 09/01 Q1021
  • 082320Z 33001KT CAVOK 09/02 Q1021
  • 082250Z VRB01KT CAVOK 09/02 Q1021
  • 082220Z 00000KT CAVOK 10/01 Q1021

TAF TAF EDDT
Valide du 09 à 00h jusqu'au 10 à 00h UTC


082300Z 0900/0924 VRB03KT CAVOK
BECMG 0906/0908 31009KT
BECMG 0916/0918 34004KT



MET'MAP, la Météo Aéronautique d'un coup d'oeil ! - Copyright ORBIFLY Décembre 2007 - Disclaimer

ORBIFLY MET'MAP TEAM :

Programmation & Développement : Alexandra Zaïnal
Sur une idée originale de : Baudouin d'Aumeries
Assistance à la programmation : Marc-Olivier Méhu
Soutien technique & logistique : Manuel Goepfert

Contact : metmap@orbifly.com




SOURCES & CREDITS :

   NOAA